createdAt,value
2023-05-06T00:00:16.696Z,4.20
2023-05-06T00:04:18.119Z,3.77
2023-05-06T00:08:20.000Z,4.20
2023-05-06T00:12:21.106Z,5.07
2023-05-06T00:16:22.809Z,4.13
2023-05-06T00:20:24.135Z,4.33
2023-05-06T00:24:25.311Z,4.60
2023-05-06T00:28:26.394Z,5.00
2023-05-06T00:32:27.421Z,6.10
2023-05-06T00:36:28.439Z,4.53
2023-05-06T00:40:29.536Z,5.13
2023-05-06T00:44:31.446Z,5.40
2023-05-06T00:48:32.546Z,6.17
2023-05-06T00:52:33.734Z,6.00
2023-05-06T00:56:35.431Z,5.13
2023-05-06T01:00:37.018Z,5.90
2023-05-06T01:04:38.186Z,5.37
2023-05-06T01:08:45.607Z,5.33
2023-05-06T01:13:11.197Z,6.27
2023-05-06T01:17:14.485Z,5.80
2023-05-06T01:21:18.211Z,6.43
2023-05-06T01:25:22.877Z,5.70
2023-05-06T01:29:23.965Z,6.07
2023-05-06T01:33:41.037Z,7.87
2023-05-06T01:38:00.923Z,6.40
2023-05-06T01:42:03.113Z,6.33
2023-05-06T01:46:06.474Z,5.80
2023-05-06T01:50:08.623Z,5.23
2023-05-06T01:54:09.791Z,6.00
2023-05-06T01:58:11.012Z,5.13
2023-05-06T02:02:11.930Z,6.27
2023-05-06T02:06:12.878Z,7.10
2023-05-06T02:10:13.817Z,14.93
2023-05-06T02:14:14.908Z,6.70
2023-05-06T02:18:15.853Z,8.80
2023-05-06T02:22:16.983Z,6.80
2023-05-06T02:26:18.115Z,6.33
2023-05-06T02:30:19.372Z,6.93
2023-05-06T02:34:20.848Z,6.60
2023-05-06T02:38:22.328Z,5.47
2023-05-06T02:42:23.524Z,6.90
2023-05-06T02:46:24.688Z,6.63
2023-05-06T02:50:26.088Z,7.00
2023-05-06T02:54:27.198Z,7.17
2023-05-06T02:58:28.793Z,7.00
2023-05-06T03:02:30.048Z,7.27
2023-05-06T03:06:31.163Z,7.67
2023-05-06T03:10:32.359Z,7.13
2023-05-06T03:14:33.481Z,7.03
2023-05-06T03:18:34.528Z,7.77
2023-05-06T03:22:35.740Z,8.23
2023-05-06T03:26:37.020Z,6.90
2023-05-06T03:30:38.368Z,7.63
2023-05-06T03:34:39.417Z,7.27
2023-05-06T03:38:41.144Z,6.80
2023-05-06T03:42:42.358Z,7.20
2023-05-06T03:46:43.465Z,7.37
2023-05-06T03:50:45.039Z,7.00
2023-05-06T03:54:46.137Z,7.10
2023-05-06T03:58:47.130Z,9.80
2023-05-06T04:02:48.378Z,6.73
2023-05-06T04:06:49.350Z,6.70
2023-05-06T04:10:50.578Z,7.57
2023-05-06T04:14:51.694Z,7.00
2023-05-06T04:18:52.707Z,6.80
2023-05-06T04:22:53.679Z,6.80
2023-05-06T04:26:55.477Z,6.23
2023-05-06T04:30:56.482Z,6.97
2023-05-06T04:34:57.605Z,7.40
2023-05-06T04:38:58.748Z,8.23
2023-05-06T04:42:59.735Z,7.70
2023-05-06T04:47:00.998Z,7.70
2023-05-06T04:51:04.383Z,6.90
2023-05-06T04:55:05.701Z,8.13
2023-05-06T04:59:07.114Z,8.80
2023-05-06T05:03:08.301Z,6.60
2023-05-06T05:07:09.453Z,6.43
2023-05-06T05:11:10.459Z,6.57
2023-05-06T05:15:12.206Z,6.50
2023-05-06T05:19:13.332Z,7.37
2023-05-06T05:23:14.471Z,5.77
2023-05-06T05:27:15.574Z,4.97
2023-05-06T05:31:16.620Z,4.13
2023-05-06T05:35:17.613Z,4.93
2023-05-06T05:39:18.721Z,4.33
2023-05-06T05:43:21.349Z,3.53
2023-05-06T05:47:22.527Z,3.53
2023-05-06T05:51:23.810Z,3.13
2023-05-06T05:55:25.771Z,4.13
2023-05-06T05:59:28.253Z,3.63
2023-05-06T06:03:29.447Z,5.50
2023-05-06T06:07:30.838Z,3.57
2023-05-06T06:11:31.971Z,3.97
2023-05-06T06:15:33.037Z,3.10
2023-05-06T06:19:34.182Z,5.40
2023-05-06T06:23:35.180Z,3.20
2023-05-06T06:27:36.296Z,3.23
2023-05-06T06:31:39.715Z,3.00
2023-05-06T06:35:40.273Z,2.67
2023-05-06T06:39:41.231Z,3.10
2023-05-06T06:43:42.353Z,2.67
2023-05-06T06:47:43.676Z,4.10
2023-05-06T06:51:44.621Z,2.47
2023-05-06T06:55:45.601Z,2.87
2023-05-06T06:59:47.014Z,2.80
2023-05-06T07:03:47.961Z,3.27
2023-05-06T07:07:49.046Z,3.60
2023-05-06T07:11:50.000Z,3.23
2023-05-06T07:15:51.105Z,5.77
2023-05-06T07:19:52.066Z,3.60
2023-05-06T07:23:53.367Z,3.43
2023-05-06T07:27:54.461Z,3.70
2023-05-06T07:31:55.648Z,3.83
2023-05-06T07:35:56.610Z,3.37
2023-05-06T07:39:58.030Z,3.40
2023-05-06T07:43:58.996Z,5.57
2023-05-06T07:48:00.116Z,3.43
2023-05-06T07:52:02.938Z,3.53
2023-05-06T07:56:04.158Z,2.57
2023-05-06T08:00:06.221Z,2.43
2023-05-06T08:04:07.227Z,2.00
2023-05-06T08:08:08.276Z,4.00
2023-05-06T08:12:09.521Z,4.13
2023-05-06T08:16:10.763Z,5.00
2023-05-06T08:20:13.068Z,3.73
2023-05-06T08:24:14.556Z,4.33
2023-05-06T08:28:15.630Z,3.47
2023-05-06T08:32:16.715Z,2.60
2023-05-06T08:36:17.787Z,2.33
2023-05-06T08:40:21.348Z,2.90
2023-05-06T08:44:24.221Z,3.03
2023-05-06T08:48:25.263Z,2.43
2023-05-06T08:52:27.161Z,5.27
2023-05-06T08:56:30.407Z,3.27
2023-05-06T09:00:32.284Z,3.10
2023-05-06T09:04:33.744Z,4.97
2023-05-06T09:08:35.504Z,5.77
2023-05-06T09:12:37.367Z,3.87
2023-05-06T09:16:40.913Z,3.97
2023-05-06T09:20:44.479Z,3.47
2023-05-06T09:24:45.622Z,6.50
2023-05-06T09:28:46.832Z,4.20
2023-05-06T09:32:49.240Z,3.67
2023-05-06T09:36:52.047Z,3.17
2023-05-06T09:40:53.295Z,3.10
2023-05-06T09:44:56.243Z,3.70
2023-05-06T09:48:58.008Z,3.40
2023-05-06T09:53:00.228Z,5.37
2023-05-06T09:57:03.145Z,5.67
2023-05-06T10:01:06.476Z,3.73
2023-05-06T10:05:09.895Z,4.23
2023-05-06T10:09:12.230Z,4.20
2023-05-06T10:13:15.510Z,4.10
2023-05-06T10:17:18.210Z,2.90
2023-05-06T10:21:21.576Z,5.73
2023-05-06T10:25:35.770Z,2.87
2023-05-06T10:29:37.302Z,10.23
2023-05-06T10:33:45.085Z,4.20
2023-05-06T10:37:48.684Z,3.00
2023-05-06T10:41:49.979Z,3.67
2023-05-06T10:46:15.362Z,4.77
2023-05-06T10:50:21.446Z,6.23
2023-05-06T10:54:23.526Z,6.00
2023-05-06T10:58:24.662Z,2.77
2023-05-06T11:02:29.675Z,4.50
2023-05-06T11:06:40.669Z,3.10
2023-05-06T11:10:41.784Z,4.73
2023-05-06T11:14:42.922Z,2.63
2023-05-06T11:18:44.378Z,3.63
